createdAt,value
2023-12-10T00:00:35.032Z,100492.75
2023-12-10T00:03:05.441Z,100487.22
2023-12-10T00:05:32.167Z,100482.41
2023-12-10T00:07:59.287Z,100490.13
2023-12-10T00:10:26.069Z,100488.97
2023-12-10T00:12:52.866Z,100488.47
2023-12-10T00:15:19.709Z,100485.53
2023-12-10T00:17:46.696Z,100483.16
2023-12-10T00:20:13.533Z,100478.91
2023-12-10T00:22:40.362Z,100479.84
2023-12-10T00:25:07.658Z,100476.00
2023-12-10T00:27:34.388Z,100468.75
2023-12-10T00:30:01.266Z,100472.47
2023-12-10T00:32:31.416Z,100464.03
2023-12-10T00:35:15.607Z,100464.91
2023-12-10T00:37:54.790Z,100472.00
2023-12-10T00:40:23.891Z,100475.56
2023-12-10T00:42:52.546Z,100476.28
2023-12-10T00:45:19.526Z,100479.09
2023-12-10T00:47:55.493Z,100474.59
2023-12-10T00:50:22.444Z,100480.28
2023-12-10T00:52:49.151Z,100480.88
2023-12-10T00:55:15.890Z,100477.25
2023-12-10T00:57:42.660Z,100472.69
2023-12-10T01:00:13.561Z,100471.00
2023-12-10T01:02:40.978Z,100460.06
2023-12-10T01:05:08.336Z,100454.19
2023-12-10T01:07:35.332Z,100457.38
2023-12-10T01:10:02.223Z,100460.69
2023-12-10T01:12:32.493Z,100437.66
2023-12-10T01:14:59.409Z,100439.44
2023-12-10T01:17:26.288Z,100434.91
2023-12-10T01:19:55.662Z,100425.38
2023-12-10T01:22:22.459Z,100421.66
2023-12-10T01:24:49.155Z,100426.13
2023-12-10T01:27:17.128Z,100431.72
2023-12-10T01:29:43.861Z,100427.25
2023-12-10T01:32:11.250Z,100436.69
2023-12-10T01:34:38.750Z,100424.13
2023-12-10T01:37:05.680Z,100421.53
2023-12-10T01:39:32.379Z,100416.16
2023-12-10T01:41:59.209Z,100403.44
2023-12-10T01:44:27.840Z,100405.28
2023-12-10T01:46:56.790Z,100400.81
2023-12-10T01:49:24.489Z,100391.97
2023-12-10T01:51:51.445Z,100397.53
2023-12-10T01:54:25.459Z,100395.72
2023-12-10T01:57:00.261Z,100389.19
2023-12-10T01:59:34.881Z,100387.84
2023-12-10T02:02:01.949Z,100379.53
2023-12-10T02:04:30.090Z,100373.47
2023-12-10T02:06:56.751Z,100368.28
2023-12-10T02:09:23.536Z,100366.03
2023-12-10T02:11:51.651Z,100359.63
2023-12-10T02:14:18.587Z,100367.16
2023-12-10T02:16:45.470Z,100372.38
2023-12-10T02:19:14.907Z,100368.59
2023-12-10T02:21:48.991Z,100359.41
2023-12-10T02:24:26.816Z,100364.47
2023-12-10T02:26:54.085Z,100355.34
2023-12-10T02:29:22.378Z,100347.84
2023-12-10T02:31:49.129Z,100354.25
2023-12-10T02:34:15.991Z,100353.94
2023-12-10T02:36:42.824Z,100353.81
2023-12-10T02:39:09.612Z,100350.34
2023-12-10T02:41:36.391Z,100356.50
2023-12-10T02:44:03.093Z,100357.94
2023-12-10T02:46:29.787Z,100365.69
2023-12-10T02:48:56.697Z,100375.53
2023-12-10T02:51:23.673Z,100372.88
2023-12-10T02:53:50.535Z,100369.09
2023-12-10T02:56:17.293Z,100370.25
2023-12-10T02:58:44.097Z,100367.63
2023-12-10T03:01:13.986Z,100359.16
2023-12-10T03:03:44.271Z,100354.47
2023-12-10T03:06:13.826Z,100351.63
2023-12-10T03:08:40.709Z,100341.78
2023-12-10T03:11:09.843Z,100330.91
2023-12-10T03:13:36.757Z,100328.91
2023-12-10T03:16:03.736Z,100322.91
2023-12-10T03:18:32.037Z,100331.84
2023-12-10T03:20:58.826Z,100330.94
2023-12-10T03:23:25.624Z,100325.94
2023-12-10T03:25:52.305Z,100327.44
2023-12-10T03:28:21.713Z,100315.97
2023-12-10T03:30:48.599Z,100325.84
2023-12-10T03:33:15.586Z,100326.28
2023-12-10T03:35:42.452Z,100324.97
2023-12-10T03:38:09.198Z,100310.84
2023-12-10T03:40:35.978Z,100310.84
2023-12-10T03:43:06.097Z,100328.63
2023-12-10T03:45:32.876Z,100319.13
2023-12-10T03:47:59.714Z,100324.72
2023-12-10T03:50:26.527Z,100326.88
2023-12-10T03:52:53.472Z,100322.34
2023-12-10T03:55:20.482Z,100315.75
2023-12-10T03:57:47.325Z,100309.53
2023-12-10T04:00:14.314Z,100316.97
2023-12-10T04:02:41.145Z,100316.34
2023-12-10T04:05:08.173Z,100318.34
2023-12-10T04:07:34.835Z,100313.63
2023-12-10T04:10:01.511Z,100310.53
2023-12-10T04:12:28.633Z,100315.03
2023-12-10T04:14:55.591Z,100318.59
2023-12-10T04:17:22.314Z,100316.03
2023-12-10T04:19:49.225Z,100313.22
2023-12-10T04:22:18.788Z,100313.56
2023-12-10T04:24:46.138Z,100307.41
2023-12-10T04:27:15.515Z,100292.38
2023-12-10T04:29:43.027Z,100296.03
2023-12-10T04:32:09.833Z,100290.94
2023-12-10T04:34:36.621Z,100292.25
2023-12-10T04:37:03.571Z,100289.59
2023-12-10T04:39:30.348Z,100296.59
2023-12-10T04:41:57.035Z,100298.72
2023-12-10T04:44:23.778Z,100304.81
2023-12-10T04:46:50.660Z,100299.91
2023-12-10T04:49:17.434Z,100312.69
2023-12-10T04:51:44.540Z,100314.50
2023-12-10T04:54:11.424Z,100307.78
2023-12-10T04:56:38.237Z,100310.19
2023-12-10T04:59:05.011Z,100307.56
2023-12-10T05:01:31.874Z,100302.94
2023-12-10T05:03:58.857Z,100310.34
2023-12-10T05:06:25.751Z,100315.81
2023-12-10T05:08:52.746Z,100312.47
2023-12-10T05:11:21.966Z,100305.03
2023-12-10T05:13:48.718Z,100299.03
2023-12-10T05:16:15.458Z,100297.13
2023-12-10T05:18:42.338Z,100299.75
2023-12-10T05:21:09.080Z,100287.19
2023-12-10T05:23:35.876Z,100291.47
2023-12-10T05:26:02.575Z,100296.53
2023-12-10T05:28:29.303Z,100292.16
2023-12-10T05:30:55.997Z,100288.72
2023-12-10T05:33:22.856Z,100285.94
2023-12-10T05:35:49.673Z,100288.34
2023-12-10T05:38:16.408Z,100285.19
2023-12-10T05:40:43.181Z,100273.97
2023-12-10T05:43:09.932Z,100276.41
2023-12-10T05:45:38.835Z,100279.00
2023-12-10T05:48:05.895Z,100286.50
2023-12-10T05:50:32.668Z,100284.47
2023-12-10T05:52:59.614Z,100282.88
2023-12-10T05:55:26.317Z,100273.28
2023-12-10T05:57:53.293Z,100265.03
2023-12-10T06:00:20.289Z,100275.00
2023-12-10T06:02:47.074Z,100274.31
2023-12-10T06:05:13.861Z,100276.56
2023-12-10T06:07:40.558Z,100268.69
2023-12-10T06:10:07.597Z,100264.66
2023-12-10T06:12:34.520Z,100263.69
2023-12-10T06:15:01.337Z,100274.16
2023-12-10T06:17:30.392Z,100267.97
2023-12-10T06:19:57.410Z,100276.38
2023-12-10T06:22:24.135Z,100269.22
2023-12-10T06:24:52.519Z,100287.97
2023-12-10T06:27:19.535Z,100278.03
2023-12-10T06:29:46.246Z,100281.09
2023-12-10T06:32:13.065Z,100296.34
2023-12-10T06:34:40.015Z,100294.88
2023-12-10T06:37:08.639Z,100301.31
2023-12-10T06:39:35.427Z,100300.56
2023-12-10T06:42:02.748Z,100291.38
2023-12-10T06:44:30.793Z,100293.69
2023-12-10T06:46:57.501Z,100293.63
2023-12-10T06:49:24.417Z,100284.94
2023-12-10T06:51:52.591Z,100283.44
2023-12-10T06:54:19.383Z,100287.75
2023-12-10T06:56:46.332Z,100292.91
2023-12-10T06:59:13.175Z,100299.13
2023-12-10T07:01:40.172Z,100296.94
2023-12-10T07:04:08.803Z,100297.00
2023-12-10T07:06:36.413Z,100300.16
2023-12-10T07:09:03.555Z,100303.16
2023-12-10T07:11:30.393Z,100304.31
2023-12-10T07:13:58.393Z,100303.81
2023-12-10T07:16:25.180Z,100307.53
2023-12-10T07:18:52.035Z,100308.13
2023-12-10T07:21:18.878Z,100313.84
2023-12-10T07:23:48.897Z,100311.00
2023-12-10T07:26:22.386Z,100315.47
2023-12-10T07:28:49.181Z,100316.44
2023-12-10T07:31:16.057Z,100311.47
2023-12-10T07:33:43.159Z,100319.94
2023-12-10T07:36:10.418Z,100310.31
2023-12-10T07:38:37.735Z,100306.25
2023-12-10T07:41:04.617Z,100313.13
2023-12-10T07:43:34.797Z,100312.22
2023-12-10T07:46:04.506Z,100313.47
2023-12-10T07:48:31.380Z,100308.81
2023-12-10T07:51:02.299Z,100312.31
2023-12-10T07:53:29.107Z,100321.41
2023-12-10T07:55:58.690Z,100324.47
2023-12-10T07:58:25.434Z,100319.94
2023-12-10T08:00:52.219Z,100318.59
2023-12-10T08:03:25.058Z,100314.28
2023-12-10T08:05:51.740Z,100316.88
2023-12-10T08:08:18.470Z,100311.22
2023-12-10T08:10:45.316Z,100317.75
2023-12-10T08:13:12.281Z,100315.63
2023-12-10T08:15:39.090Z,100318.25
2023-12-10T08:18:06.465Z,100315.09
2023-12-10T08:20:36.282Z,100320.66
2023-12-10T08:23:03.057Z,100311.97
2023-12-10T08:25:35.717Z,100314.19
2023-12-10T08:28:02.513Z,100307.16
2023-12-10T08:30:29.351Z,100312.22
2023-12-10T08:32:56.174Z,100317.94
2023-12-10T08:35:25.899Z,100324.09
2023-12-10T08:37:52.723Z,100322.41
2023-12-10T08:40:22.291Z,100318.91
2023-12-10T08:42:51.453Z,100314.47
2023-12-10T08:45:23.000Z,100316.94
2023-12-10T08:47:49.849Z,100318.53
2023-12-10T08:50:16.710Z,100317.28
2023-12-10T08:52:44.472Z,100313.69
2023-12-10T08:55:13.385Z,100318.75
2023-12-10T08:57:42.623Z,100318.91
2023-12-10T09:00:09.833Z,100320.22
2023-12-10T09:02:36.783Z,100315.09
2023-12-10T09:05:05.080Z,100323.03
2023-12-10T09:07:31.949Z,100321.97
2023-12-10T09:10:08.273Z,100326.41
2023-12-10T09:12:38.869Z,100328.22
2023-12-10T09:15:06.251Z,100330.50
2023-12-10T09:17:36.094Z,100334.09
2023-12-10T09:20:04.766Z,100332.31
2023-12-10T09:22:31.759Z,100335.81
2023-12-10T09:24:58.717Z,100329.94
2023-12-10T09:27:29.040Z,100322.63
2023-12-10T09:29:57.199Z,100321.06
2023-12-10T09:32:23.873Z,100330.28
2023-12-10T09:34:51.246Z,100319.16
2023-12-10T09:37:18.194Z,100323.56
2023-12-10T09:39:45.066Z,100320.22
2023-12-10T09:42:11.837Z,100319.03
2023-12-10T09:44:38.665Z,100318.88
2023-12-10T09:47:09.802Z,100319.69
2023-12-10T09:49:41.724Z,100326.31
2023-12-10T09:52:09.763Z,100322.63
2023-12-10T09:54:39.558Z,100319.94
2023-12-10T09:57:06.978Z,100328.28
2023-12-10T09:59:33.835Z,100329.94
2023-12-10T10:02:00.539Z,100320.97
2023-12-10T10:04:27.549Z,100319.66
2023-12-10T10:06:54.553Z,100309.31
2023-12-10T10:09:28.588Z,100314.81
2023-12-10T10:12:02.653Z,100318.47
2023-12-10T10:14:29.517Z,100321.59
2023-12-10T10:16:57.775Z,100314.22
2023-12-10T10:19:26.652Z,100323.28
2023-12-10T10:21:55.612Z,100321.06
2023-12-10T10:24:23.363Z,100330.50
2023-12-10T10:26:50.577Z,100332.19
2023-12-10T10:29:17.593Z,100326.13
2023-12-10T10:31:45.776Z,100326.53
2023-12-10T10:34:15.994Z,100320.31
2023-12-10T10:36:43.006Z,100324.78
2023-12-10T10:39:14.917Z,100324.69
2023-12-10T10:41:41.837Z,100319.13
2023-12-10T10:44:08.564Z,100324.97
2023-12-10T10:46:37.357Z,100317.72
2023-12-10T10:49:06.768Z,100323.28
2023-12-10T10:51:34.159Z,100323.03
2023-12-10T10:54:05.764Z,100317.50
2023-12-10T10:56:35.856Z,100315.59
2023-12-10T10:59:02.502Z,100319.50
2023-12-10T11:01:48.734Z,100313.94
2023-12-10T11:04:20.252Z,100319.41
2023-12-10T11:06:48.320Z,100315.34
2023-12-10T11:09:18.672Z,100306.94
2023-12-10T11:11:45.484Z,100309.03
2023-12-10T11:14:24.343Z,100312.34
2023-12-10T11:16:59.222Z,100312.03
2023-12-10T11:19:26.339Z,100317.41
2023-12-10T11:21:53.187Z,100305.84
2023-12-10T11:24:20.165Z,100307.44
2023-12-10T11:26:50.029Z,100311.84
2023-12-10T11:29:25.820Z,100313.50
2023-12-10T11:31:54.302Z,100313.75
2023-12-10T11:34:21.176Z,100317.72
2023-12-10T11:36:50.888Z,100318.91
2023-12-10T11:39:17.792Z,100311.59
2023-12-10T11:44:18.577Z,100322.66
2023-12-10T11:46:50.818Z,100320.69
2023-12-10T11:49:19.030Z,100324.19
2023-12-10T11:51:46.073Z,100315.84
2023-12-10T11:54:21.680Z,100317.97
2023-12-10T11:56:51.345Z,100321.22
2023-12-10T11:59:18.181Z,100320.69
2023-12-10T12:01:46.870Z,100317.47
2023-12-10T12:04:13.921Z,100328.31
2023-12-10T12:06:41.957Z,100323.78
2023-12-10T12:09:22.760Z,100323.19
2023-12-10T12:11:50.319Z,100333.19
2023-12-10T12:14:17.846Z,100337.47
2023-12-10T12:16:46.412Z,100326.03
2023-12-10T12:19:30.241Z,100330.78
2023-12-10T12:22:00.568Z,100333.34
2023-12-10T12:24:27.651Z,100335.16
2023-12-10T12:26:55.457Z,100331.53
2023-12-10T12:29:22.266Z,100332.19
2023-12-10T12:32:05.161Z,100329.97
2023-12-10T12:34:35.636Z,100336.56
2023-12-10T12:37:03.786Z,100340.31
2023-12-10T12:39:30.752Z,100342.53
2023-12-10T12:42:00.010Z,100343.63
2023-12-10T12:44:26.743Z,100348.84
2023-12-10T12:46:54.010Z,100346.94
2023-12-10T12:49:23.506Z,100351.94
2023-12-10T12:51:50.313Z,100348.34
2023-12-10T12:54:17.152Z,100350.91
2023-12-10T12:56:44.037Z,100349.25
2023-12-10T12:59:16.312Z,100358.53
2023-12-10T13:01:43.790Z,100355.88
2023-12-10T13:04:10.931Z,100364.09
2023-12-10T13:06:42.543Z,100363.19
2023-12-10T13:09:09.385Z,100366.34
2023-12-10T13:11:38.004Z,100368.47
2023-12-10T13:14:07.363Z,100375.59
2023-12-10T13:16:34.116Z,100368.75
2023-12-10T13:19:01.161Z,100381.06
2023-12-10T13:21:31.773Z,100381.00
2023-12-10T13:23:58.620Z,100380.25
2023-12-10T13:26:25.547Z,100382.47
2023-12-10T13:28:52.385Z,100390.19
2023-12-10T13:31:19.244Z,100392.19
2023-12-10T13:33:46.165Z,100395.41
2023-12-10T13:36:12.987Z,100396.25
2023-12-10T13:38:39.725Z,100402.31
2023-12-10T13:41:06.621Z,100402.53
2023-12-10T13:43:34.074Z,100406.19
2023-12-10T13:46:00.848Z,100404.94
2023-12-10T13:48:27.696Z,100411.25
2023-12-10T13:50:56.088Z,100411.09
2023-12-10T13:53:22.955Z,100415.72
2023-12-10T13:55:49.678Z,100418.72
2023-12-10T13:58:16.402Z,100417.13
2023-12-10T14:00:50.110Z,100420.28
2023-12-10T14:03:16.865Z,100421.38
2023-12-10T14:05:46.291Z,100416.06
2023-12-10T14:08:15.935Z,100419.38
2023-12-10T14:10:42.932Z,100424.34
2023-12-10T14:13:09.624Z,100423.38
2023-12-10T14:15:36.643Z,100428.56
2023-12-10T14:18:03.774Z,100430.81
2023-12-10T14:20:30.670Z,100430.66
2023-12-10T14:22:57.327Z,100430.81
2023-12-10T14:25:24.101Z,100438.09
2023-12-10T14:27:52.616Z,100440.50
2023-12-10T14:30:21.745Z,100434.81
2023-12-10T14:32:51.277Z,100437.19
2023-12-10T14:35:20.915Z,100438.59
2023-12-10T14:37:49.362Z,100442.44
2023-12-10T14:40:16.240Z,100444.66
2023-12-10T14:42:43.024Z,100446.91
2023-12-10T14:45:10.158Z,100448.56
2023-12-10T14:47:37.243Z,100455.38
2023-12-10T14:50:05.059Z,100456.69
2023-12-10T14:52:38.127Z,100460.34
2023-12-10T14:55:05.564Z,100458.16
2023-12-10T14:57:32.538Z,100462.72
2023-12-10T15:00:07.242Z,100464.31
2023-12-10T15:02:33.951Z,100458.03
2023-12-10T15:05:04.201Z,100465.97
2023-12-10T15:07:31.438Z,100477.81
2023-12-10T15:09:58.383Z,100476.41
2023-12-10T15:12:26.602Z,100473.09
2023-12-10T15:14:54.293Z,100475.75
2023-12-10T15:17:24.276Z,100479.97
2023-12-10T15:19:51.188Z,100481.28
2023-12-10T15:22:20.465Z,100486.00
2023-12-10T15:24:47.344Z,100487.75
2023-12-10T15:27:14.088Z,100485.09
2023-12-10T15:29:43.961Z,100483.19
2023-12-10T15:32:10.740Z,100488.19
2023-12-10T15:34:37.628Z,100489.03
2023-12-10T15:37:04.688Z,100488.19
2023-12-10T15:39:31.695Z,100494.00
2023-12-10T15:41:59.934Z,100489.44
2023-12-10T15:44:28.798Z,100494.91
2023-12-10T15:46:58.112Z,100502.31
2023-12-10T15:49:25.041Z,100496.84
2023-12-10T15:51:56.102Z,100507.78
2023-12-10T15:54:29.879Z,100514.91
2023-12-10T15:56:56.663Z,100512.75
2023-12-10T15:59:23.384Z,100518.72
2023-12-10T16:01:50.186Z,100523.34
2023-12-10T16:04:17.443Z,100522.28
2023-12-10T16:06:44.326Z,100531.22
2023-12-10T16:09:12.343Z,100531.81
2023-12-10T16:11:39.349Z,100541.34
2023-12-10T16:14:06.160Z,100540.63
2023-12-10T16:16:32.962Z,100545.81
2023-12-10T16:18:59.862Z,100545.59
2023-12-10T16:21:26.664Z,100545.34
2023-12-10T16:23:53.516Z,100545.34
2023-12-10T16:26:21.206Z,100556.03
2023-12-10T16:28:51.473Z,100552.22
2023-12-10T16:31:18.538Z,100562.66
2023-12-10T16:33:45.348Z,100563.16
2023-12-10T16:36:15.125Z,100562.34
2023-12-10T16:38:41.927Z,100557.38
2023-12-10T16:41:08.788Z,100567.47
2023-12-10T16:43:35.536Z,100569.13
2023-12-10T16:46:02.410Z,100566.88
2023-12-10T16:48:29.492Z,100575.94
2023-12-10T16:50:56.486Z,100574.28
2023-12-10T16:53:23.428Z,100589.50
2023-12-10T16:55:50.374Z,100579.88
2023-12-10T16:58:17.722Z,100580.84
2023-12-10T17:00:44.699Z,100584.41
2023-12-10T17:03:12.292Z,100580.97
2023-12-10T17:05:39.272Z,100591.47
2023-12-10T17:08:07.118Z,100582.34
2023-12-10T17:10:36.766Z,100589.81
2023-12-10T17:13:03.776Z,100590.66
2023-12-10T17:15:30.685Z,100583.50
2023-12-10T17:18:00.181Z,100579.09
2023-12-10T17:20:27.059Z,100584.34
2023-12-10T17:22:53.865Z,100577.19
2023-12-10T17:25:20.552Z,100585.19
2023-12-10T17:27:47.317Z,100572.88
2023-12-10T17:30:16.538Z,100585.22
2023-12-10T17:32:43.556Z,100576.19
2023-12-10T17:35:13.428Z,100582.72
2023-12-10T17:37:40.181Z,100586.44
2023-12-10T17:40:07.766Z,100581.06
2023-12-10T17:42:34.645Z,100583.31
2023-12-10T17:45:01.527Z,100587.97
2023-12-10T17:47:28.685Z,100602.47
2023-12-10T17:49:56.805Z,100600.88
2023-12-10T17:52:25.149Z,100602.06
2023-12-10T17:54:56.555Z,100598.16
2023-12-10T17:57:26.315Z,100594.47
2023-12-10T17:59:55.719Z,100602.34
2023-12-10T18:02:25.374Z,100596.41
2023-12-10T18:04:52.156Z,100604.00
2023-12-10T18:07:18.853Z,100595.91
2023-12-10T18:09:45.623Z,100598.31
2023-12-10T18:12:17.151Z,100601.25
2023-12-10T18:14:43.873Z,100604.97
2023-12-10T18:17:10.696Z,100604.78
2023-12-10T18:19:39.859Z,100615.34
2023-12-10T18:22:07.766Z,100613.53
2023-12-10T18:24:34.731Z,100615.44
2023-12-10T18:27:01.444Z,100604.63
2023-12-10T18:29:28.208Z,100598.34
2023-12-10T18:31:54.938Z,100606.28
2023-12-10T18:34:22.111Z,100609.38
2023-12-10T18:36:48.975Z,100610.81
2023-12-10T18:39:15.758Z,100613.56
2023-12-10T18:41:42.556Z,100621.97
2023-12-10T18:44:09.265Z,100625.44
2023-12-10T18:46:36.090Z,100637.19
2023-12-10T18:49:02.939Z,100635.66
2023-12-10T18:51:29.803Z,100647.75
2023-12-10T18:53:56.588Z,100638.25
2023-12-10T18:56:23.301Z,100632.66
2023-12-10T18:58:49.951Z,100631.22
2023-12-10T19:01:16.789Z,100644.41
2023-12-10T19:03:46.481Z,100637.53
2023-12-10T19:06:13.358Z,100642.41
2023-12-10T19:08:45.148Z,100646.94
2023-12-10T19:11:14.853Z,100640.31
2023-12-10T19:13:41.644Z,100639.66
2023-12-10T19:16:08.772Z,100636.38
2023-12-10T19:18:42.169Z,100630.16
2023-12-10T19:21:08.960Z,100630.91
2023-12-10T19:23:36.005Z,100630.66
2023-12-10T19:26:02.755Z,100623.78
2023-12-10T19:28:29.567Z,100626.28
2023-12-10T19:30:56.580Z,100626.63
2023-12-10T19:33:23.629Z,100616.50
2023-12-10T19:35:50.367Z,100615.69
2023-12-10T19:38:17.341Z,100610.34
2023-12-10T19:40:44.462Z,100622.34
2023-12-10T19:43:11.378Z,100623.22
2023-12-10T19:45:38.210Z,100615.84
2023-12-10T19:48:06.607Z,100620.09
2023-12-10T19:50:33.317Z,100617.97
2023-12-10T19:52:59.981Z,100625.56
2023-12-10T19:55:26.956Z,100633.28
2023-12-10T19:57:56.577Z,100630.56
2023-12-10T20:00:23.386Z,100630.56
2023-12-10T20:02:50.095Z,100640.06
2023-12-10T20:05:17.129Z,100645.53
2023-12-10T20:07:46.479Z,100649.59
2023-12-10T20:10:13.429Z,100655.66
2023-12-10T20:12:40.343Z,100659.34
2023-12-10T20:15:09.107Z,100658.06
2023-12-10T20:17:38.563Z,100658.41
2023-12-10T20:20:08.716Z,100653.28
2023-12-10T20:22:40.793Z,100647.94
2023-12-10T20:25:12.948Z,100633.47
2023-12-10T20:27:45.265Z,100634.88
2023-12-10T20:30:12.444Z,100639.75
2023-12-10T20:32:39.950Z,100640.56
2023-12-10T20:35:07.144Z,100634.88
2023-12-10T20:37:34.176Z,100623.50
2023-12-10T20:40:05.514Z,100618.38
2023-12-10T20:42:32.359Z,100615.84
2023-12-10T20:44:59.308Z,100635.09
2023-12-10T20:47:26.390Z,100636.75
2023-12-10T20:49:53.509Z,100637.16
2023-12-10T20:52:20.577Z,100640.09
2023-12-10T20:54:53.817Z,100639.88
2023-12-10T20:57:20.552Z,100634.66
2023-12-10T20:59:47.475Z,100648.09
2023-12-10T21:02:14.210Z,100645.81
2023-12-10T21:04:40.942Z,100652.97
2023-12-10T21:07:07.723Z,100656.50
2023-12-10T21:09:34.491Z,100651.88
2023-12-10T21:12:01.208Z,100648.31
2023-12-10T21:14:28.284Z,100661.38
2023-12-10T21:16:57.818Z,100657.00
2023-12-10T21:19:24.739Z,100669.69
2023-12-10T21:21:53.968Z,100669.97
2023-12-10T21:24:24.895Z,100673.63
2023-12-10T21:26:52.492Z,100668.28
2023-12-10T21:29:19.365Z,100664.00
2023-12-10T21:31:51.649Z,100646.41
2023-12-10T21:34:18.529Z,100652.81
2023-12-10T21:36:48.146Z,100644.75
2023-12-10T21:39:20.272Z,100643.19
2023-12-10T21:41:47.184Z,100644.63
2023-12-10T21:44:17.036Z,100645.34
2023-12-10T21:46:44.000Z,100648.09
2023-12-10T21:49:13.954Z,100653.06
2023-12-10T21:51:40.881Z,100641.28
2023-12-10T21:54:07.892Z,100640.59
2023-12-10T21:56:35.209Z,100639.16
2023-12-10T21:59:01.968Z,100646.53
2023-12-10T22:01:32.874Z,100644.41
2023-12-10T22:03:59.833Z,100646.53
2023-12-10T22:06:26.712Z,100639.16
2023-12-10T22:08:53.953Z,100646.28
2023-12-10T22:11:20.638Z,100652.00
2023-12-10T22:13:47.371Z,100645.72
2023-12-10T22:16:14.268Z,100649.03
2023-12-10T22:18:44.421Z,100650.34
2023-12-10T22:21:11.383Z,100654.63
2023-12-10T22:23:39.365Z,100658.88
2023-12-10T22:26:06.036Z,100646.06
2023-12-10T22:28:32.727Z,100636.19
2023-12-10T22:30:59.469Z,100643.69
2023-12-10T22:33:28.457Z,100646.44
2023-12-10T22:35:55.272Z,100644.28
2023-12-10T22:38:24.750Z,100648.44
2023-12-10T22:40:51.656Z,100637.75
2023-12-10T22:43:19.903Z,100634.28
2023-12-10T22:45:46.709Z,100636.31
2023-12-10T22:48:13.744Z,100647.84
2023-12-10T22:50:43.397Z,100645.13
2023-12-10T22:53:10.223Z,100654.50
2023-12-10T22:55:39.119Z,100649.72
2023-12-10T22:58:06.058Z,100651.97
2023-12-10T23:00:34.787Z,100651.88
2023-12-10T23:03:01.702Z,100653.06
2023-12-10T23:05:28.556Z,100644.53
2023-12-10T23:07:55.279Z,100647.13
2023-12-10T23:10:24.990Z,100652.94
2023-12-10T23:12:51.938Z,100659.25
2023-12-10T23:15:18.717Z,100651.41
2023-12-10T23:17:45.602Z,100653.66
2023-12-10T23:20:15.400Z,100646.31
2023-12-10T23:22:42.182Z,100632.16
2023-12-10T23:25:11.932Z,100633.34
2023-12-10T23:27:39.134Z,100638.94
2023-12-10T23:30:06.449Z,100639.19
2023-12-10T23:32:35.966Z,100638.31
2023-12-10T23:35:02.800Z,100640.34
2023-12-10T23:37:30.010Z,100632.88
2023-12-10T23:39:56.874Z,100641.06
2023-12-10T23:42:23.626Z,100638.56
2023-12-10T23:44:50.469Z,100611.97
2023-12-10T23:47:17.294Z,100612.69
2023-12-10T23:49:44.210Z,100618.50
2023-12-10T23:52:13.646Z,100628.84
2023-12-10T23:54:40.508Z,100647.59
2023-12-10T23:57:07.378Z,100639.28
2023-12-10T23:59:34.446Z,100632.78
